Terminal Aerodrome Forecast
Issued by NWS

Current Version | Previous Version | Graphics & Text | Print | Product List | Glossary On
Versions: 1 2 3 4 5 6 7 8 9 10 11 12 13 14 15 16 17 18 19 20 21 22
000
FTUS41 KILN 141747
TAFLCK
TAF
KLCK 141747Z 1418/1518 VRB04KT P6SM FEW030 SCT250
     FM150200 10004KT P6SM SCT100 BKN200
     FM150800 VRB04KT P6SM BKN070
     FM151100 13005KT 2SM -SN OVC020
     FM151500 17010G16KT 2SM -SN OVC015=

USA.gov is the U.S. government's official web portal to all federal, state and local government web resources and services.